SBRB/RBR METAR and TAF weather

Enter ICAO airport designator
Station Type Date Time Source
SBRB METAR 2020/06/05 09:00 UTC NOAA

SBRB 050900Z 00000KT 1500 R06/1400 BR OVC003 19/19 Q1014


Station Type Date Time Source
SBRB Decoded METAR 2020/06/05 09:00 UTC NOAA

Rio Branco, Brazil (SBRB) 10-00S 067-48W 143M
Jun 05, 2020 - 05:00 AM EDT / 2020.06.05 0900 UTC
Wind: Calm:0
Visibility: less than 1 mile:0
Sky conditions: overcast
Weather: mist
Temperature: 66 F (19 C)
Dew Point: 66 F (19 C)
Relative Humidity: 100%
Pressure (altimeter): 29.94 in. Hg (1014 hPa)
ob: SBRB 050900Z 00000KT 1500 R06/1400 BR OVC003 19/19 Q1014
cycle: 9

Station Type Date Time Source
SBRB TAF 2020/06/05 06:12 UTC NOAA

TAF SBRB 050300Z 0506/0518 06005KT 9999 SCT010 TN20/0506Z TX27/0516Z
TEMPO 0508/0512 00000KT 4000 BR BKN010
RMK PDX

Example: see airport list